Time;durP1;ratioP1;P1;durP2;ratioP2;P2;SDS_P1;SDS_P2;PMS_P1;PMS_P2;Temp;Humidity;BMP_temperature;BMP_pressure;BME280_temperature;BME280_humidity;BME280_pressure;Samples;Min_cycle;Max_cycle;Signal;HPM_P1;HPM_P2
2021/07/28 00:02:06;;;;;;;18.05;9.50;;;;;;;;;;5051790;28;20040;-56
2021/07/28 00:04:32;;;;;;;16.50;9.10;;;;;;;;;;5054081;28;20036;-59
2021/07/28 00:06:58;;;;;;;17.02;9.30;;;;;;;;;;5052855;28;20048;-55
2021/07/28 00:09:24;;;;;;;18.65;9.93;;;;;;;;;;5048109;28;20415;-57
2021/07/28 00:11:49;;;;;;;21.27;9.68;;;;;;;;;;5050076;28;20040;-57
2021/07/28 00:14:15;;;;;;;18.08;9.35;;;;;;;;;;5051255;28;21248;-57
2021/07/28 00:16:41;;;;;;;14.80;8.77;;;;;;;;;;5051205;28;20119;-57
2021/07/28 00:19:12;;;;;;;20.05;8.77;;;;;;;;;;5053146;28;20049;-58
2021/07/28 00:24:21;;;;;;;13.07;7.82;;;;;;;;;;5065690;28;20101;-56
2021/07/28 00:26:47;;;;;;;15.48;8.30;;;;;;;;;;5076238;28;20048;-56
2021/07/28 00:29:13;;;;;;;12.73;8.32;;;;;;;;;;5040884;28;20739;-56
2021/07/28 00:31:39;;;;;;;19.55;8.98;;;;;;;;;;5075028;28;20039;-56
2021/07/28 00:34:05;;;;;;;17.08;9.18;;;;;;;;;;5071966;28;20166;-57
2021/07/28 00:36:31;;;;;;;13.27;8.52;;;;;;;;;;5074050;28;20055;-57
2021/07/28 00:38:56;;;;;;;21.88;9.38;;;;;;;;;;5074820;28;20055;-56
2021/07/28 00:41:22;;;;;;;15.88;9.45;;;;;;;;;;5077457;28;20039;-56
2021/07/28 00:43:48;;;;;;;18.25;10.90;;;;;;;;;;5077636;28;20553;-57
2021/07/28 00:46:14;;;;;;;14.00;8.57;;;;;;;;;;5079713;28;20039;-53
2021/07/28 00:48:40;;;;;;;16.05;8.38;;;;;;;;;;5077774;28;20039;-56
2021/07/28 00:51:05;;;;;;;13.93;8.40;;;;;;;;;;5081640;28;20048;-57
2021/07/28 00:53:32;;;;;;;12.43;7.75;;;;;;;;;;5080482;28;20047;-57
2021/07/28 00:56:00;;;;;;;15.80;7.68;;;;;;;;;;5081264;27;20040;-57
2021/07/28 00:58:26;;;;;;;14.07;8.10;;;;;;;;;;5080042;28;20044;-57
2021/07/28 01:00:52;;;;;;;12.95;7.70;;;;;;;;;;5082391;28;20062;-57
2021/07/28 01:03:18;;;;;;;17.17;8.82;;;;;;;;;;5078531;28;20040;-57
2021/07/28 01:05:44;;;;;;;13.90;8.63;;;;;;;;;;5080929;28;20342;-57
2021/07/28 01:08:10;;;;;;;15.90;7.97;;;;;;;;;;5080459;28;20085;-55
2021/07/28 01:10:36;;;;;;;13.35;8.25;;;;;;;;;;5080175;28;20036;-57
2021/07/28 01:13:04;;;;;;;15.05;8.82;;;;;;;;;;5080881;28;20036;-56
2021/07/28 01:18:03;;;;;;;13.27;7.83;;;;;;;;;;5079909;28;20040;-57
2021/07/28 01:20:49;;;;;;;13.93;8.23;;;;;;;;;;5076114;28;20307;-56
2021/07/28 01:23:15;;;;;;;17.58;8.82;;;;;;;;;;5078166;28;20042;-56
2021/07/28 01:25:42;;;;;;;13.65;8.32;;;;;;;;;;5078597;28;20048;-57
2021/07/28 01:28:07;;;;;;;16.20;8.88;;;;;;;;;;5077898;28;21327;-56
2021/07/28 01:30:33;;;;;;;20.25;9.27;;;;;;;;;;5062752;28;20047;-55
2021/07/28 01:33:03;;;;;;;19.42;9.38;;;;;;;;;;5068276;28;20043;-56
2021/07/28 01:35:31;;;;;;;14.65;8.88;;;;;;;;;;5077145;28;20064;-56
2021/07/28 01:37:57;;;;;;;18.77;8.70;;;;;;;;;;5078888;28;20047;-56
2021/07/28 01:40:23;;;;;;;20.50;8.90;;;;;;;;;;5059756;28;20052;-56
2021/07/28 01:42:48;;;;;;;16.35;8.90;;;;;;;;;;5080176;28;20065;-57
2021/07/28 01:45:15;;;;;;;15.13;8.27;;;;;;;;;;5079162;28;20054;-57
2021/07/28 01:47:41;;;;;;;15.77;8.50;;;;;;;;;;5076966;28;20045;-58
2021/07/28 01:50:08;;;;;;;18.70;9.27;;;;;;;;;;5077524;28;20047;-57
2021/07/28 01:52:34;;;;;;;18.02;8.23;;;;;;;;;;5077125;28;20039;-56
2021/07/28 01:55:00;;;;;;;15.65;8.38;;;;;;;;;;5053297;28;20066;-56
2021/07/28 01:57:26;;;;;;;14.02;8.07;;;;;;;;;;5072633;28;20516;-55
2021/07/28 01:59:52;;;;;;;15.23;8.70;;;;;;;;;;5073668;28;20461;-56
2021/07/28 02:02:18;;;;;;;14.02;7.63;;;;;;;;;;5071200;28;20125;-57
2021/07/28 02:04:44;;;;;;;12.38;7.07;;;;;;;;;;5072080;28;20039;-56
2021/07/28 02:07:09;;;;;;;12.85;7.47;;;;;;;;;;5072858;28;20113;-57
2021/07/28 02:09:35;;;;;;;15.70;6.60;;;;;;;;;;5071530;28;20037;-55
2021/07/28 02:12:01;;;;;;;13.73;6.80;;;;;;;;;;5074663;28;20073;-56
2021/07/28 02:14:27;;;;;;;10.38;5.80;;;;;;;;;;5072936;28;20148;-55
2021/07/28 02:16:52;;;;;;;11.00;5.63;;;;;;;;;;5071926;28;20067;-57
2021/07/28 02:19:18;;;;;;;16.92;6.72;;;;;;;;;;5072210;28;20043;-56
2021/07/28 02:21:44;;;;;;;11.68;5.78;;;;;;;;;;5073102;28;20404;-56
2021/07/28 02:24:10;;;;;;;13.25;6.05;;;;;;;;;;5074418;28;20040;-56
2021/07/28 02:26:36;;;;;;;16.58;4.78;;;;;;;;;;5073801;28;20613;-57
2021/07/28 02:29:01;;;;;;;14.38;5.63;;;;;;;;;;5073755;28;20035;-57
2021/07/28 02:31:27;;;;;;;12.20;5.43;;;;;;;;;;5073562;28;20807;-57
2021/07/28 02:33:53;;;;;;;9.57;5.20;;;;;;;;;;5073856;28;20040;-57
2021/07/28 02:36:19;;;;;;;9.68;5.40;;;;;;;;;;5073025;28;20204;-57
2021/07/28 02:38:44;;;;;;;11.77;5.40;;;;;;;;;;5073679;28;20083;-55
2021/07/28 02:41:10;;;;;;;9.63;5.07;;;;;;;;;;5073786;28;20182;-57
2021/07/28 02:43:36;;;;;;;10.93;4.85;;;;;;;;;;5071234;28;20032;-56
2021/07/28 02:46:02;;;;;;;12.25;5.07;;;;;;;;;;5053798;28;20497;-56
2021/07/28 02:48:27;;;;;;;10.90;4.80;;;;;;;;;;5073463;28;20074;-56
2021/07/28 02:50:53;;;;;;;9.82;4.60;;;;;;;;;;5056676;28;20505;-56
2021/07/28 02:53:22;;;;;;;10.02;5.03;;;;;;;;;;5074348;28;20332;-58
2021/07/28 02:55:48;;;;;;;10.90;4.95;;;;;;;;;;5076664;28;20048;-57
2021/07/28 02:58:13;;;;;;;11.70;4.80;;;;;;;;;;5074338;28;20074;-57
2021/07/28 03:00:40;;;;;;;10.48;4.80;;;;;;;;;;5073411;28;20044;-56
2021/07/28 03:03:08;;;;;;;10.27;4.32;;;;;;;;;;5073868;28;20036;-57
2021/07/28 03:05:34;;;;;;;11.52;4.60;;;;;;;;;;5073111;28;20047;-57
2021/07/28 03:07:59;;;;;;;10.10;4.80;;;;;;;;;;5073385;28;20033;-57
2021/07/28 03:10:25;;;;;;;10.63;5.25;;;;;;;;;;5071673;28;20032;-56
2021/07/28 03:12:51;;;;;;;11.35;4.65;;;;;;;;;;5072510;28;20053;-57
2021/07/28 03:15:17;;;;;;;9.43;4.95;;;;;;;;;;5073208;28;20400;-56
2021/07/28 03:17:43;;;;;;;13.05;4.97;;;;;;;;;;5070845;28;20044;-57
2021/07/28 03:20:09;;;;;;;11.18;4.85;;;;;;;;;;5051247;28;20139;-56
2021/07/28 03:22:35;;;;;;;11.57;4.50;;;;;;;;;;5068996;28;20028;-55
2021/07/28 03:25:01;;;;;;;9.85;4.53;;;;;;;;;;5070956;28;20040;-54
2021/07/28 03:27:26;;;;;;;11.50;4.57;;;;;;;;;;5069702;28;20036;-56
2021/07/28 03:29:52;;;;;;;12.35;5.25;;;;;;;;;;5064107;28;20041;-57
2021/07/28 03:32:18;;;;;;;7.05;3.85;;;;;;;;;;5054087;28;20516;-57
2021/07/28 03:34:44;;;;;;;11.73;4.70;;;;;;;;;;5069824;28;20043;-57
2021/07/28 03:37:09;;;;;;;15.52;5.05;;;;;;;;;;5069630;28;20096;-56
2021/07/28 03:39:35;;;;;;;9.65;4.25;;;;;;;;;;5045508;28;20040;-56
2021/07/28 03:42:01;;;;;;;8.27;4.07;;;;;;;;;;5073162;28;20137;-57
2021/07/28 03:44:27;;;;;;;9.70;4.43;;;;;;;;;;5069512;28;20555;-54
2021/07/28 03:46:53;;;;;;;8.73;4.57;;;;;;;;;;5073074;28;20044;-56
2021/07/28 03:49:18;;;;;;;11.57;4.22;;;;;;;;;;5072464;28;20036;-55
2021/07/28 03:51:44;;;;;;;9.85;4.72;;;;;;;;;;5070995;28;20051;-56
2021/07/28 03:54:11;;;;;;;10.18;3.90;;;;;;;;;;5070295;28;20532;-59
2021/07/28 03:56:36;;;;;;;10.15;4.28;;;;;;;;;;5043488;28;20378;-56
2021/07/28 03:59:02;;;;;;;10.63;4.20;;;;;;;;;;5055735;28;20658;-55
2021/07/28 04:01:28;;;;;;;16.38;5.15;;;;;;;;;;5051927;28;20409;-55
2021/07/28 04:03:54;;;;;;;13.02;4.63;;;;;;;;;;5054761;28;20546;-57
2021/07/28 04:06:20;;;;;;;10.30;3.83;;;;;;;;;;5057576;28;20056;-53
2021/07/28 04:08:46;;;;;;;11.30;4.60;;;;;;;;;;5056380;28;20044;-56
2021/07/28 04:11:11;;;;;;;12.73;4.03;;;;;;;;;;5058239;28;20452;-55
2021/07/28 04:13:37;;;;;;;16.60;4.22;;;;;;;;;;5058696;28;20045;-56
2021/07/28 04:16:03;;;;;;;12.77;4.90;;;;;;;;;;5060138;28;20115;-53
2021/07/28 04:18:29;;;;;;;12.35;4.20;;;;;;;;;;5059235;28;20047;-56
2021/07/28 04:20:55;;;;;;;10.10;3.97;;;;;;;;;;5060110;28;20041;-54
2021/07/28 04:23:21;;;;;;;9.35;4.35;;;;;;;;;;5062050;28;20040;-55
2021/07/28 04:25:47;;;;;;;9.45;4.97;;;;;;;;;;5061430;28;20394;-56
2021/07/28 04:28:12;;;;;;;9.50;4.15;;;;;;;;;;5061436;28;20043;-55
2021/07/28 04:30:38;;;;;;;7.03;3.50;;;;;;;;;;5062226;28;20037;-56
2021/07/28 04:33:04;;;;;;;10.40;5.00;;;;;;;;;;5062010;28;20051;-55
2021/07/28 04:35:30;;;;;;;14.23;4.40;;;;;;;;;;5062532;28;20032;-56
2021/07/28 04:37:56;;;;;;;11.10;4.70;;;;;;;;;;5061282;28;20417;-56
2021/07/28 04:40:22;;;;;;;9.65;3.72;;;;;;;;;;5060817;28;20106;-56
2021/07/28 04:42:47;;;;;;;8.93;4.53;;;;;;;;;;5062364;28;20063;-55
2021/07/28 04:45:14;;;;;;;9.13;4.35;;;;;;;;;;5063385;28;20033;-55
2021/07/28 04:47:40;;;;;;;9.15;3.92;;;;;;;;;;5060594;28;20040;-57
2021/07/28 04:50:06;;;;;;;10.52;4.18;;;;;;;;;;5078728;28;20051;-57
2021/07/28 04:52:32;;;;;;;10.13;4.63;;;;;;;;;;5071700;28;20137;-57
2021/07/28 04:54:58;;;;;;;13.50;4.13;;;;;;;;;;5062307;28;20051;-56
2021/07/28 04:57:23;;;;;;;8.40;4.05;;;;;;;;;;5060419;28;20099;-56
2021/07/28 04:59:49;;;;;;;12.18;4.03;;;;;;;;;;5060178;28;20064;-57
2021/07/28 05:02:15;;;;;;;9.25;3.78;;;;;;;;;;5060713;28;20485;-56
2021/07/28 05:04:42;;;;;;;7.07;3.88;;;;;;;;;;5058693;28;20064;-57
2021/07/28 05:07:08;;;;;;;9.85;4.25;;;;;;;;;;5061219;28;20084;-57
2021/07/28 05:09:34;;;;;;;8.05;4.18;;;;;;;;;;5060831;28;20067;-57
2021/07/28 05:12:00;;;;;;;10.35;4.63;;;;;;;;;;5061762;28;20689;-55
2021/07/28 05:14:26;;;;;;;9.25;3.58;;;;;;;;;;5060070;28;20040;-57
2021/07/28 05:16:51;;;;;;;8.20;3.75;;;;;;;;;;5061174;28;20120;-56
2021/07/28 05:19:17;;;;;;;9.00;4.13;;;;;;;;;;5060570;28;20848;-54
2021/07/28 05:21:43;;;;;;;12.90;4.00;;;;;;;;;;5060365;28;20043;-55
2021/07/28 05:24:09;;;;;;;10.38;3.72;;;;;;;;;;5059161;28;20119;-55
2021/07/28 05:26:35;;;;;;;8.48;4.20;;;;;;;;;;5059454;28;20044;-58
2021/07/28 05:29:00;;;;;;;13.57;3.92;;;;;;;;;;5059960;28;20047;-56
2021/07/28 05:31:26;;;;;;;9.20;4.10;;;;;;;;;;5058984;28;20127;-54
2021/07/28 05:33:52;;;;;;;9.27;3.97;;;;;;;;;;5060164;28;20960;-56
2021/07/28 05:36:18;;;;;;;16.58;3.72;;;;;;;;;;5068985;28;20072;-55
2021/07/28 05:38:43;;;;;;;16.40;4.28;;;;;;;;;;5061745;28;20459;-56
2021/07/28 05:41:09;;;;;;;10.30;4.50;;;;;;;;;;5051815;28;20093;-54
2021/07/28 05:43:35;;;;;;;8.80;3.70;;;;;;;;;;5056704;28;20047;-56
2021/07/28 05:46:01;;;;;;;8.57;3.75;;;;;;;;;;5060664;28;20051;-55
2021/07/28 05:48:31;;;;;;;10.63;4.20;;;;;;;;;;5058292;28;20918;-56
2021/07/28 05:50:57;;;;;;;7.60;3.67;;;;;;;;;;5062287;28;20036;-56
2021/07/28 05:53:23;;;;;;;7.90;3.42;;;;;;;;;;5059688;28;20153;-54
2021/07/28 05:55:49;;;;;;;9.98;4.28;;;;;;;;;;5060312;28;20568;-56
2021/07/28 05:58:15;;;;;;;10.00;3.85;;;;;;;;;;5059324;28;20036;-55
2021/07/28 06:00:40;;;;;;;10.52;3.88;;;;;;;;;;5058104;28;20794;-57
2021/07/28 06:03:06;;;;;;;13.90;4.30;;;;;;;;;;5060044;28;20052;-56
2021/07/28 06:05:32;;;;;;;9.02;3.85;;;;;;;;;;5059518;28;20040;-56
2021/07/28 06:07:58;;;;;;;10.57;4.00;;;;;;;;;;5059197;28;20029;-56
2021/07/28 06:10:24;;;;;;;9.07;3.85;;;;;;;;;;5057745;28;20047;-56
2021/07/28 06:12:50;;;;;;;11.65;4.00;;;;;;;;;;5059750;28;20040;-56
2021/07/28 06:15:15;;;;;;;8.40;3.97;;;;;;;;;;5059653;28;20079;-55
2021/07/28 06:17:41;;;;;;;12.27;4.10;;;;;;;;;;5058861;28;20036;-55
2021/07/28 06:20:07;;;;;;;10.75;4.03;;;;;;;;;;5069011;28;20064;-56
2021/07/28 06:22:34;;;;;;;11.98;4.40;;;;;;;;;;5059620;28;20036;-56
2021/07/28 06:25:00;;;;;;;9.05;3.90;;;;;;;;;;5059201;28;20056;-56
2021/07/28 06:27:26;;;;;;;11.38;3.83;;;;;;;;;;5057517;28;20037;-56
2021/07/28 06:29:51;;;;;;;9.75;3.78;;;;;;;;;;5059061;28;20480;-55
2021/07/28 06:32:17;;;;;;;9.73;4.03;;;;;;;;;;5058526;28;20041;-56
2021/07/28 06:34:44;;;;;;;9.90;3.88;;;;;;;;;;5059872;28;20048;-56
2021/07/28 06:37:09;;;;;;;9.77;3.78;;;;;;;;;;5058491;28;20037;-56
2021/07/28 06:39:35;;;;;;;9.05;3.80;;;;;;;;;;5057714;28;20055;-56
2021/07/28 06:42:01;;;;;;;12.15;4.45;;;;;;;;;;5059996;28;20660;-54
2021/07/28 06:44:27;;;;;;;7.22;3.65;;;;;;;;;;5058675;28;20032;-56
2021/07/28 06:46:53;;;;;;;8.32;3.72;;;;;;;;;;5059239;28;20493;-57
2021/07/28 06:49:18;;;;;;;10.43;4.00;;;;;;;;;;5054711;28;20201;-57
2021/07/28 06:51:44;;;;;;;11.55;3.72;;;;;;;;;;5058719;28;20040;-56
2021/07/28 06:54:10;;;;;;;7.72;3.83;;;;;;;;;;5059900;28;20420;-56
2021/07/28 06:56:37;;;;;;;8.55;4.22;;;;;;;;;;5058167;28;20040;-54
2021/07/28 06:59:03;;;;;;;7.88;3.45;;;;;;;;;;5057892;28;20139;-54
2021/07/28 07:01:28;;;;;;;7.93;3.13;;;;;;;;;;5058024;28;20111;-56
2021/07/28 07:03:54;;;;;;;8.88;3.35;;;;;;;;;;5057718;28;20458;-56
2021/07/28 07:06:20;;;;;;;8.13;3.60;;;;;;;;;;5056681;28;20130;-56
2021/07/28 07:08:46;;;;;;;9.43;3.60;;;;;;;;;;5056849;28;20491;-56
2021/07/28 07:11:11;;;;;;;10.98;4.18;;;;;;;;;;5057713;28;20067;-56
2021/07/28 07:13:37;;;;;;;7.07;2.95;;;;;;;;;;5057652;28;20041;-57
2021/07/28 07:16:03;;;;;;;7.95;3.70;;;;;;;;;;5056726;28;20055;-56
2021/07/28 07:18:29;;;;;;;11.07;3.72;;;;;;;;;;5055876;28;20044;-56
2021/07/28 07:20:55;;;;;;;14.68;4.22;;;;;;;;;;5056356;28;20071;-54
2021/07/28 07:23:20;;;;;;;10.02;3.75;;;;;;;;;;5056975;28;20040;-57
2021/07/28 07:25:46;;;;;;;8.10;3.83;;;;;;;;;;5057846;28;20480;-55
2021/07/28 07:28:12;;;;;;;7.65;3.30;;;;;;;;;;5058084;28;20032;-56
2021/07/28 07:30:38;;;;;;;10.82;3.53;;;;;;;;;;5057300;28;20044;-57
2021/07/28 07:35:49;;;;;;;9.45;3.42;;;;;;;;;;5057723;28;20052;-56
2021/07/28 07:38:15;;;;;;;9.05;3.53;;;;;;;;;;5057485;28;20066;-56
2021/07/28 07:40:42;;;;;;;7.43;3.00;;;;;;;;;;5057433;28;20517;-56
2021/07/28 07:43:08;;;;;;;9.45;3.50;;;;;;;;;;5069226;28;20131;-53
2021/07/28 07:45:35;;;;;;;9.75;3.25;;;;;;;;;;5076988;28;20553;-56
2021/07/28 07:48:01;;;;;;;8.02;3.60;;;;;;;;;;5076939;28;21803;-56
2021/07/28 07:50:31;;;;;;;7.00;3.22;;;;;;;;;;5077346;28;20043;-56
2021/07/28 07:52:59;;;;;;;9.70;3.55;;;;;;;;;;5077365;28;20488;-56
2021/07/28 07:55:25;;;;;;;7.65;3.50;;;;;;;;;;5078750;28;20047;-56
2021/07/28 07:57:51;;;;;;;9.43;3.25;;;;;;;;;;5080821;28;20048;-54
2021/07/28 08:00:17;;;;;;;7.07;3.05;;;;;;;;;;5081914;28;20098;-54
2021/07/28 08:02:43;;;;;;;8.75;3.22;;;;;;;;;;5083178;28;20457;-54
2021/07/28 08:05:09;;;;;;;7.78;3.60;;;;;;;;;;5083480;28;20036;-55
2021/07/28 08:07:34;;;;;;;11.65;3.95;;;;;;;;;;5083758;28;20059;-54
2021/07/28 08:10:00;;;;;;;11.38;3.72;;;;;;;;;;5080130;28;20044;-54
2021/07/28 08:12:26;;;;;;;8.50;3.25;;;;;;;;;;5080691;28;20765;-55
2021/07/28 08:14:52;;;;;;;8.90;3.40;;;;;;;;;;5081520;28;20257;-54
2021/07/28 08:17:18;;;;;;;6.15;3.20;;;;;;;;;;5080300;28;20040;-55
2021/07/28 08:19:44;;;;;;;12.68;3.47;;;;;;;;;;5080146;28;20071;-55
2021/07/28 08:22:10;;;;;;;10.82;4.00;;;;;;;;;;5081209;28;20046;-55
2021/07/28 08:24:35;;;;;;;9.52;3.50;;;;;;;;;;5079572;28;20036;-55
2021/07/28 08:27:01;;;;;;;8.60;3.33;;;;;;;;;;5080570;28;20069;-54
2021/07/28 08:29:27;;;;;;;6.38;3.10;;;;;;;;;;5080392;28;20036;-55
2021/07/28 08:31:53;;;;;;;7.88;3.50;;;;;;;;;;5081159;28;20036;-55
2021/07/28 08:34:18;;;;;;;6.30;3.28;;;;;;;;;;5079342;28;20185;-55
2021/07/28 08:36:44;;;;;;;9.98;3.75;;;;;;;;;;5080963;28;20088;-56
2021/07/28 08:39:10;;;;;;;8.15;3.40;;;;;;;;;;5080732;28;20075;-54
2021/07/28 08:41:41;;;;;;;11.38;3.45;;;;;;;;;;5068713;28;20029;-55
2021/07/28 08:44:07;;;;;;;10.00;3.90;;;;;;;;;;5072170;28;20037;-53
2021/07/28 08:46:33;;;;;;;8.65;3.80;;;;;;;;;;5053890;28;20032;-55
2021/07/28 08:48:59;;;;;;;10.38;3.47;;;;;;;;;;5061974;28;20071;-56
2021/07/28 08:51:27;;;;;;;11.98;4.00;;;;;;;;;;5061676;28;20036;-55
2021/07/28 08:53:53;;;;;;;8.75;3.95;;;;;;;;;;5058940;28;20047;-55
2021/07/28 08:56:21;;;;;;;11.85;3.92;;;;;;;;;;5060672;28;20036;-55
2021/07/28 08:58:47;;;;;;;9.57;3.10;;;;;;;;;;5059583;28;20516;-52
2021/07/28 09:01:13;;;;;;;11.57;3.80;;;;;;;;;;5060612;28;20094;-54
2021/07/28 09:03:39;;;;;;;8.55;3.53;;;;;;;;;;5059998;28;20123;-52
2021/07/28 09:06:05;;;;;;;9.98;3.65;;;;;;;;;;5060573;28;20041;-56
2021/07/28 09:08:32;;;;;;;8.55;3.83;;;;;;;;;;5060668;28;20047;-56
2021/07/28 09:11:04;;;;;;;8.32;4.18;;;;;;;;;;5061744;28;20037;-55
2021/07/28 09:13:37;;;;;;;9.68;4.07;;;;;;;;;;5061139;28;20041;-52
2021/07/28 09:16:04;;;;;;;7.05;3.60;;;;;;;;;;5061977;28;20041;-55
2021/07/28 09:18:40;;;;;;;10.02;3.88;;;;;;;;;;5061192;28;20029;-55
2021/07/28 09:21:24;;;;;;;8.88;3.63;;;;;;;;;;5062779;28;21008;-54
2021/07/28 09:23:52;;;;;;;9.27;3.70;;;;;;;;;;5061063;28;20036;-55
2021/07/28 09:26:29;;;;;;;10.00;3.80;;;;;;;;;;5061156;28;20047;-53
2021/07/28 09:29:04;;;;;;;8.90;4.20;;;;;;;;;;5060208;28;20147;-56
2021/07/28 09:31:40;;;;;;;8.48;3.80;;;;;;;;;;5058816;28;20053;-53
2021/07/28 09:34:26;;;;;;;7.95;3.63;;;;;;;;;;5060488;28;20043;-55
2021/07/28 09:36:56;;;;;;;9.68;3.30;;;;;;;;;;5044967;28;20036;-55
2021/07/28 09:39:29;;;;;;;9.05;4.28;;;;;;;;;;5059117;28;20060;-53
2021/07/28 09:41:56;;;;;;;8.15;3.80;;;;;;;;;;5059892;28;21995;-54
2021/07/28 09:44:27;;;;;;;12.70;3.50;;;;;;;;;;5057951;28;20697;-55
2021/07/28 09:47:04;;;;;;;11.55;3.92;;;;;;;;;;5058986;28;20450;-54
2021/07/28 09:49:30;;;;;;;10.95;3.63;;;;;;;;;;5057813;28;20047;-53
2021/07/28 09:51:56;;;;;;;9.90;3.78;;;;;;;;;;5058931;28;20040;-53
2021/07/28 09:54:26;;;;;;;9.07;3.58;;;;;;;;;;5068245;28;20676;-53
2021/07/28 09:56:53;;;;;;;9.05;3.75;;;;;;;;;;5076839;28;20040;-53
2021/07/28 09:59:20;;;;;;;9.30;3.65;;;;;;;;;;5058724;28;20054;-55
2021/07/28 10:01:47;;;;;;;7.18;3.33;;;;;;;;;;5059430;28;20040;-54
2021/07/28 10:04:14;;;;;;;9.27;4.00;;;;;;;;;;5059123;28;20054;-55
2021/07/28 10:06:47;;;;;;;9.52;4.40;;;;;;;;;;5059192;28;20090;-55
2021/07/28 10:09:12;;;;;;;;;;;;;;;;;;5061294;28;20036;-55
2021/07/28 10:11:43;;;;;;;8.75;4.07;;;;;;;;;;5059144;28;19927;-55
2021/07/28 10:14:09;;;;;;;10.77;3.75;;;;;;;;;;5059972;28;20064;-55
2021/07/28 10:16:35;;;;;;;9.25;3.97;;;;;;;;;;5059202;28;20051;-53
2021/07/28 10:19:05;;;;;;;9.50;3.80;;;;;;;;;;5058427;28;20053;-55
2021/07/28 10:21:32;;;;;;;10.30;4.10;;;;;;;;;;5058324;28;20047;-54
2021/07/28 10:23:58;;;;;;;10.15;3.50;;;;;;;;;;5060007;28;20464;-55
2021/07/28 10:26:24;;;;;;;11.40;4.00;;;;;;;;;;5059543;28;20040;-54
2021/07/28 10:28:50;;;;;;;11.88;3.85;;;;;;;;;;5080371;28;20039;-54
2021/07/28 10:31:16;;;;;;;11.07;4.05;;;;;;;;;;5072122;28;21771;-54
2021/07/28 10:33:46;;;;;;;11.23;4.13;;;;;;;;;;5059182;28;22090;-56
2021/07/28 10:36:12;;;;;;;9.93;4.07;;;;;;;;;;5059499;28;20056;-55
2021/07/28 10:38:58;;;;;;;8.98;3.50;;;;;;;;;;5071641;28;20131;-56
2021/07/28 10:41:41;;;;;;;9.45;3.80;;;;;;;;;;5057084;28;20044;-56
2021/07/28 10:44:14;;;;;;;8.05;3.58;;;;;;;;;;5058821;28;20435;-54
2021/07/28 10:46:52;;;;;;;11.43;3.72;;;;;;;;;;5057991;28;20668;-56
2021/07/28 10:49:34;;;;;;;12.00;3.83;;;;;;;;;;5057615;28;20135;-56
2021/07/28 10:52:00;;;;;;;10.48;3.95;;;;;;;;;;5058679;28;20070;-55
2021/07/28 10:54:49;;;;;;;9.88;3.88;;;;;;;;;;5057862;28;20235;-56
2021/07/28 10:57:54;;;;;;;10.55;4.07;;;;;;;;;;5054090;28;20101;-55
2021/07/28 11:00:38;;;;;;;12.30;4.60;;;;;;;;;;5059789;28;21250;-55
2021/07/28 11:03:07;;;;;;;8.25;3.63;;;;;;;;;;5058361;28;20143;-54
2021/07/28 11:05:35;;;;;;;8.07;3.47;;;;;;;;;;5057170;28;20051;-56
2021/07/28 11:08:07;;;;;;;10.13;3.83;;;;;;;;;;5058220;28;20055;-55
2021/07/28 11:10:34;;;;;;;8.23;3.75;;;;;;;;;;5073351;28;20196;-55
2021/07/28 11:13:11;;;;;;;8.38;4.30;;;;;;;;;;5058557;28;20044;-56
2021/07/28 11:15:37;;;;;;;11.65;3.90;;;;;;;;;;5058487;28;20094;-54
2021/07/28 11:18:03;;;;;;;10.73;4.53;;;;;;;;;;5058930;28;20047;-54
2021/07/28 11:20:30;;;;;;;10.82;4.00;;;;;;;;;;5059349;28;20044;-55
2021/07/28 11:23:14;;;;;;;7.30;3.53;;;;;;;;;;5060435;28;20428;-55
2021/07/28 11:25:40;;;;;;;11.88;3.75;;;;;;;;;;5058087;28;20040;-56
2021/07/28 11:28:06;;;;;;;9.30;3.78;;;;;;;;;;5060275;28;20048;-56
2021/07/28 11:30:32;;;;;;;11.40;4.22;;;;;;;;;;5059529;28;20024;-56
2021/07/28 11:33:14;;;;;;;12.23;3.80;;;;;;;;;;5059884;28;20048;-56
2021/07/28 11:35:43;;;;;;;11.57;4.05;;;;;;;;;;5059010;28;20781;-56
2021/07/28 11:38:16;;;;;;;10.13;4.45;;;;;;;;;;5058464;28;20044;-56
2021/07/28 11:40:44;;;;;;;11.25;4.20;;;;;;;;;;5058679;28;20402;-54
2021/07/28 11:43:19;;;;;;;13.25;4.50;;;;;;;;;;5059182;28;20177;-56
2021/07/28 11:45:45;;;;;;;12.60;4.78;;;;;;;;;;5058979;28;20044;-54
2021/07/28 11:48:30;;;;;;;14.40;4.50;;;;;;;;;;5059072;28;20059;-57
2021/07/28 11:50:56;;;;;;;9.07;4.00;;;;;;;;;;5057944;28;20033;-56
2021/07/28 11:53:26;;;;;;;9.07;4.13;;;;;;;;;;5056957;28;20040;-56
2021/07/28 11:55:52;;;;;;;7.32;3.90;;;;;;;;;;5058367;28;20523;-56
2021/07/28 11:58:18;;;;;;;9.20;4.65;;;;;;;;;;5056594;28;20040;-55
2021/07/28 12:00:47;;;;;;;11.93;4.68;;;;;;;;;;5057058;28;20052;-54
2021/07/28 12:03:22;;;;;;;10.35;4.30;;;;;;;;;;5058244;28;20040;-54
2021/07/28 12:06:01;;;;;;;12.48;4.38;;;;;;;;;;5057149;28;20054;-56
2021/07/28 12:08:33;;;;;;;10.77;4.65;;;;;;;;;;5056752;28;20044;-56
2021/07/28 12:11:06;;;;;;;10.93;4.45;;;;;;;;;;5056883;28;20515;-57
2021/07/28 12:13:39;;;;;;;15.38;5.07;;;;;;;;;;5055835;28;20531;-56
2021/07/28 12:16:05;;;;;;;11.90;5.25;;;;;;;;;;5056382;28;20051;-54
2021/07/28 12:18:41;;;;;;;12.55;5.40;;;;;;;;;;5055658;28;20040;-56
2021/07/28 12:21:07;;;;;;;12.85;4.82;;;;;;;;;;5056612;28;20052;-54
2021/07/28 12:23:33;;;;;;;10.88;4.72;;;;;;;;;;5054891;28;20067;-55
2021/07/28 12:25:58;;;;;;;9.18;4.43;;;;;;;;;;5056069;28;20033;-55
2021/07/28 12:28:44;;;;;;;12.98;4.80;;;;;;;;;;5055002;28;20035;-57
2021/07/28 12:31:23;;;;;;;14.80;5.07;;;;;;;;;;5055003;28;20044;-55
2021/07/28 12:33:49;;;;;;;10.05;4.63;;;;;;;;;;5064747;28;20060;-56
2021/07/28 12:36:24;;;;;;;14.13;5.50;;;;;;;;;;5059289;28;20056;-55
2021/07/28 12:38:50;;;;;;;10.70;5.40;;;;;;;;;;5056673;28;20051;-56
2021/07/28 12:41:18;;;;;;;11.75;5.43;;;;;;;;;;5059254;28;20040;-55
2021/07/28 12:43:44;;;;;;;13.15;4.95;;;;;;;;;;5060053;28;20066;-57
2021/07/28 12:46:10;;;;;;;12.55;5.25;;;;;;;;;;5062862;28;20423;-56
2021/07/28 12:48:37;;;;;;;11.55;4.85;;;;;;;;;;5062230;28;20040;-57
2021/07/28 12:51:04;;;;;;;12.35;5.28;;;;;;;;;;5061181;28;20072;-57
2021/07/28 12:53:30;;;;;;;12.00;4.72;;;;;;;;;;5062399;28;20067;-56
2021/07/28 12:55:56;;;;;;;10.98;5.30;;;;;;;;;;5061903;28;20041;-55
2021/07/28 12:58:23;;;;;;;9.40;4.53;;;;;;;;;;5061418;28;20044;-57
2021/07/28 13:00:48;;;;;;;12.13;4.93;;;;;;;;;;5053841;28;20584;-57
2021/07/28 13:03:15;;;;;;;11.25;5.00;;;;;;;;;;5063983;28;20128;-56
2021/07/28 13:05:43;;;;;;;14.38;4.65;;;;;;;;;;5064643;28;20032;-56
2021/07/28 13:08:10;;;;;;;13.68;5.13;;;;;;;;;;5073648;28;20036;-56
2021/07/28 13:10:37;;;;;;;11.90;4.85;;;;;;;;;;5076460;28;20032;-57
2021/07/28 13:13:03;;;;;;;10.23;4.95;;;;;;;;;;5078274;28;20040;-57
2021/07/28 13:15:29;;;;;;;13.65;5.45;;;;;;;;;;5070170;28;20037;-57
2021/07/28 13:17:55;;;;;;;12.52;5.53;;;;;;;;;;5063009;28;20037;-56
2021/07/28 13:20:21;;;;;;;11.90;5.10;;;;;;;;;;5046362;28;20075;-57
2021/07/28 13:22:47;;;;;;;16.80;6.78;;;;;;;;;;5062862;28;20044;-54
2021/07/28 13:25:13;;;;;;;50.70;23.13;;;;;;;;;;5063838;28;20052;-57
2021/07/28 13:27:39;;;;;;;46.75;25.27;;;;;;;;;;5062726;28;20032;-54
2021/07/28 13:30:06;;;;;;;19.25;9.00;;;;;;;;;;5063359;28;20028;-56
2021/07/28 13:32:32;;;;;;;16.60;7.70;;;;;;;;;;5061873;28;20400;-56
2021/07/28 13:34:58;;;;;;;13.43;6.60;;;;;;;;;;5060776;28;20037;-54
2021/07/28 13:37:24;;;;;;;13.82;5.75;;;;;;;;;;5059291;28;20131;-56
2021/07/28 13:39:49;;;;;;;13.98;6.50;;;;;;;;;;5060167;28;20060;-57
2021/07/28 13:42:16;;;;;;;14.68;6.10;;;;;;;;;;5061281;28;20033;-57
2021/07/28 13:44:41;;;;;;;16.55;6.28;;;;;;;;;;5059431;28;20048;-56
2021/07/28 13:47:08;;;;;;;15.52;5.90;;;;;;;;;;5058280;28;20045;-56
2021/07/28 13:49:34;;;;;;;13.23;5.97;;;;;;;;;;5057832;28;20044;-55
2021/07/28 13:52:01;;;;;;;17.27;6.82;;;;;;;;;;5057492;28;20059;-57
2021/07/28 13:54:27;;;;;;;15.85;6.28;;;;;;;;;;5057408;28;20127;-55
2021/07/28 13:57:12;;;;;;;12.43;5.78;;;;;;;;;;5057319;28;20040;-55
2021/07/28 13:59:38;;;;;;;12.15;5.50;;;;;;;;;;5078471;28;20439;-53
2021/07/28 14:02:05;;;;;;;15.40;5.30;;;;;;;;;;5078020;28;20051;-57
2021/07/28 14:04:31;;;;;;;13.18;5.38;;;;;;;;;;5058322;28;20401;-56
2021/07/28 14:06:57;;;;;;;15.77;5.80;;;;;;;;;;5057294;28;20048;-56
2021/07/28 14:09:22;;;;;;;20.20;5.22;;;;;;;;;;5058193;28;20043;-56
2021/07/28 14:11:48;;;;;;;12.38;4.90;;;;;;;;;;5067215;28;20044;-57
2021/07/28 14:14:14;;;;;;;11.52;5.15;;;;;;;;;;5058696;28;20063;-55
2021/07/28 14:16:40;;;;;;;12.45;5.03;;;;;;;;;;5060054;28;20044;-57
2021/07/28 14:19:06;;;;;;;12.38;4.60;;;;;;;;;;5058434;28;20048;-55
2021/07/28 14:21:32;;;;;;;10.10;4.18;;;;;;;;;;5058417;28;20535;-56
2021/07/28 14:23:58;;;;;;;9.45;4.85;;;;;;;;;;5059088;28;20049;-55
2021/07/28 14:26:24;;;;;;;10.82;4.35;;;;;;;;;;5058430;28;20094;-57
2021/07/28 14:28:49;;;;;;;11.25;4.65;;;;;;;;;;5057866;28;20450;-55
2021/07/28 14:31:15;;;;;;;9.77;4.47;;;;;;;;;;5059158;28;20032;-56
2021/07/28 14:33:41;;;;;;;12.07;4.43;;;;;;;;;;5060838;28;20028;-57
2021/07/28 14:36:07;;;;;;;10.90;4.95;;;;;;;;;;5058517;28;20037;-57
2021/07/28 14:38:33;;;;;;;11.00;4.43;;;;;;;;;;5058168;28;20919;-58
2021/07/28 14:40:59;;;;;;;8.10;4.15;;;;;;;;;;5058971;28;20078;-56
2021/07/28 14:43:25;;;;;;;14.15;4.30;;;;;;;;;;5067382;28;20032;-54
2021/07/28 14:45:51;;;;;;;15.05;4.30;;;;;;;;;;5058506;28;20033;-56